sensor_id;sensor_type;location;lat;lon;timestamp;P1;durP1;ratioP1;P2;durP2;ratioP2
26864;SDS011;40618;51.166;10.322;2023-02-03T00:00:34;4.38;;;3.55;;
26864;SDS011;40618;51.166;10.322;2023-02-03T00:03:00;4.53;;;3.63;;
26864;SDS011;40618;51.166;10.322;2023-02-03T00:05:26;4.82;;;3.03;;
26864;SDS011;40618;51.166;10.322;2023-02-03T00:07:52;3.78;;;2.70;;
26864;SDS011;40618;51.166;10.322;2023-02-03T00:10:18;2.75;;;2.22;;
26864;SDS011;40618;51.166;10.322;2023-02-03T00:12:48;4.40;;;3.20;;
26864;SDS011;40618;51.166;10.322;2023-02-03T00:15:16;2.42;;;2.22;;
26864;SDS011;40618;51.166;10.322;2023-02-03T00:17:43;2.78;;;2.50;;
26864;SDS011;40618;51.166;10.322;2023-02-03T00:20:09;4.68;;;3.17;;
26864;SDS011;40618;51.166;10.322;2023-02-03T00:22:35;3.80;;;3.03;;
26864;SDS011;40618;51.166;10.322;2023-02-03T00:25:01;2.67;;;2.47;;
26864;SDS011;40618;51.166;10.322;2023-02-03T00:27:27;3.28;;;2.90;;
26864;SDS011;40618;51.166;10.322;2023-02-03T00:29:53;4.30;;;3.08;;
26864;SDS011;40618;51.166;10.322;2023-02-03T00:32:18;4.18;;;2.90;;
26864;SDS011;40618;51.166;10.322;2023-02-03T00:34:44;3.80;;;2.92;;
26864;SDS011;40618;51.166;10.322;2023-02-03T00:37:11;5.32;;;3.50;;
26864;SDS011;40618;51.166;10.322;2023-02-03T00:39:37;4.20;;;3.22;;
26864;SDS011;40618;51.166;10.322;2023-02-03T00:42:04;4.28;;;3.10;;
26864;SDS011;40618;51.166;10.322;2023-02-03T00:44:30;4.00;;;3.28;;
26864;SDS011;40618;51.166;10.322;2023-02-03T00:46:56;4.80;;;3.35;;
26864;SDS011;40618;51.166;10.322;2023-02-03T00:49:23;5.03;;;3.85;;
26864;SDS011;40618;51.166;10.322;2023-02-03T00:51:49;4.72;;;3.70;;
26864;SDS011;40618;51.166;10.322;2023-02-03T00:54:16;4.35;;;3.17;;
26864;SDS011;40618;51.166;10.322;2023-02-03T00:56:42;4.90;;;3.92;;
26864;SDS011;40618;51.166;10.322;2023-02-03T00:59:08;6.72;;;4.40;;
26864;SDS011;40618;51.166;10.322;2023-02-03T01:01:34;4.97;;;4.30;;
26864;SDS011;40618;51.166;10.322;2023-02-03T01:04:00;8.55;;;6.20;;
26864;SDS011;40618;51.166;10.322;2023-02-03T01:06:27;5.13;;;4.07;;
26864;SDS011;40618;51.166;10.322;2023-02-03T01:08:53;5.55;;;3.70;;
26864;SDS011;40618;51.166;10.322;2023-02-03T01:11:28;5.60;;;4.03;;
26864;SDS011;40618;51.166;10.322;2023-02-03T01:13:54;9.05;;;6.20;;
26864;SDS011;40618;51.166;10.322;2023-02-03T01:16:24;6.47;;;4.70;;
26864;SDS011;40618;51.166;10.322;2023-02-03T01:18:50;7.00;;;4.22;;
26864;SDS011;40618;51.166;10.322;2023-02-03T01:21:17;4.95;;;3.83;;
26864;SDS011;40618;51.166;10.322;2023-02-03T01:23:48;7.28;;;4.43;;
26864;SDS011;40618;51.166;10.322;2023-02-03T01:26:16;5.93;;;4.63;;
26864;SDS011;40618;51.166;10.322;2023-02-03T01:31:25;12.88;;;6.22;;
26864;SDS011;40618;51.166;10.322;2023-02-03T01:33:59;8.02;;;5.63;;
26864;SDS011;40618;51.166;10.322;2023-02-03T01:36:26;7.13;;;4.32;;
26864;SDS011;40618;51.166;10.322;2023-02-03T01:38:54;7.80;;;5.35;;
26864;SDS011;40618;51.166;10.322;2023-02-03T01:41:21;9.40;;;5.82;;
26864;SDS011;40618;51.166;10.322;2023-02-03T01:43:50;8.18;;;6.53;;
26864;SDS011;40618;51.166;10.322;2023-02-03T01:49:09;10.00;;;6.32;;
26864;SDS011;40618;51.166;10.322;2023-02-03T01:51:42;11.82;;;7.50;;
26864;SDS011;40618;51.166;10.322;2023-02-03T01:54:13;13.38;;;7.68;;
26864;SDS011;40618;51.166;10.322;2023-02-03T01:56:52;9.40;;;6.88;;
26864;SDS011;40618;51.166;10.322;2023-02-03T01:59:23;6.72;;;5.35;;
26864;SDS011;40618;51.166;10.322;2023-02-03T02:01:50;6.85;;;5.32;;
26864;SDS011;40618;51.166;10.322;2023-02-03T02:04:18;7.93;;;5.93;;
26864;SDS011;40618;51.166;10.322;2023-02-03T02:06:46;8.43;;;5.28;;
26864;SDS011;40618;51.166;10.322;2023-02-03T02:09:12;7.13;;;5.53;;
26864;SDS011;40618;51.166;10.322;2023-02-03T02:11:39;7.60;;;5.55;;
26864;SDS011;40618;51.166;10.322;2023-02-03T02:14:05;7.13;;;5.50;;
26864;SDS011;40618;51.166;10.322;2023-02-03T02:22:25;8.38;;;5.25;;
26864;SDS011;40618;51.166;10.322;2023-02-03T02:34:07;8.32;;;6.35;;
26864;SDS011;40618;51.166;10.322;2023-02-03T02:37:03;8.88;;;6.35;;
26864;SDS011;40618;51.166;10.322;2023-02-03T02:40:04;8.38;;;6.10;;
26864;SDS011;40618;51.166;10.322;2023-02-03T02:42:45;7.85;;;5.00;;
26864;SDS011;40618;51.166;10.322;2023-02-03T02:45:25;10.73;;;5.97;;
26864;SDS011;40618;51.166;10.322;2023-02-03T02:47:59;7.10;;;5.65;;
26864;SDS011;40618;51.166;10.322;2023-02-03T02:50:38;9.48;;;5.80;;
26864;SDS011;40618;51.166;10.322;2023-02-03T02:53:09;11.27;;;5.95;;
26864;SDS011;40618;51.166;10.322;2023-02-03T02:55:37;7.68;;;5.60;;
26864;SDS011;40618;51.166;10.322;2023-02-03T02:58:06;8.38;;;5.95;;
26864;SDS011;40618;51.166;10.322;2023-02-03T03:00:37;8.38;;;6.25;;
26864;SDS011;40618;51.166;10.322;2023-02-03T03:03:15;6.35;;;5.18;;
26864;SDS011;40618;51.166;10.322;2023-02-03T03:05:54;5.28;;;4.75;;
26864;SDS011;40618;51.166;10.322;2023-02-03T03:11:09;5.88;;;5.03;;
26864;SDS011;40618;51.166;10.322;2023-02-03T03:13:40;5.93;;;5.00;;
26864;SDS011;40618;51.166;10.322;2023-02-03T03:16:12;7.72;;;5.07;;
26864;SDS011;40618;51.166;10.322;2023-02-03T03:18:45;5.28;;;4.30;;
26864;SDS011;40618;51.166;10.322;2023-02-03T03:21:25;9.20;;;5.30;;
26864;SDS011;40618;51.166;10.322;2023-02-03T03:24:00;8.20;;;5.15;;
26864;SDS011;40618;51.166;10.322;2023-02-03T03:26:35;6.22;;;5.15;;
26864;SDS011;40618;51.166;10.322;2023-02-03T03:31:44;7.25;;;5.28;;
26864;SDS011;40618;51.166;10.322;2023-02-03T03:34:11;8.63;;;6.53;;
26864;SDS011;40618;51.166;10.322;2023-02-03T03:37:13;7.78;;;5.97;;
26864;SDS011;40618;51.166;10.322;2023-02-03T03:42:22;10.40;;;6.53;;
26864;SDS011;40618;51.166;10.322;2023-02-03T03:48:06;10.07;;;6.57;;
26864;SDS011;40618;51.166;10.322;2023-02-03T03:50:49;7.05;;;5.72;;
26864;SDS011;40618;51.166;10.322;2023-02-03T03:53:24;6.82;;;5.18;;
26864;SDS011;40618;51.166;10.322;2023-02-03T03:55:54;10.52;;;5.70;;
26864;SDS011;40618;51.166;10.322;2023-02-03T03:58:26;12.27;;;6.00;;
26864;SDS011;40618;51.166;10.322;2023-02-03T04:06:05;10.05;;;6.15;;
26864;SDS011;40618;51.166;10.322;2023-02-03T04:08:31;7.38;;;5.90;;
26864;SDS011;40618;51.166;10.322;2023-02-03T04:10:57;6.93;;;5.13;;
26864;SDS011;40618;51.166;10.322;2023-02-03T04:13:22;10.27;;;6.18;;
26864;SDS011;40618;51.166;10.322;2023-02-03T04:15:48;7.78;;;5.55;;
26864;SDS011;40618;51.166;10.322;2023-02-03T04:18:14;7.93;;;5.78;;
26864;SDS011;40618;51.166;10.322;2023-02-03T04:20:40;7.78;;;4.97;;
26864;SDS011;40618;51.166;10.322;2023-02-03T04:23:07;6.35;;;5.15;;
26864;SDS011;40618;51.166;10.322;2023-02-03T04:25:33;10.77;;;6.50;;
26864;SDS011;40618;51.166;10.322;2023-02-03T04:27:58;8.45;;;6.72;;
26864;SDS011;40618;51.166;10.322;2023-02-03T04:30:25;8.77;;;6.55;;
26864;SDS011;40618;51.166;10.322;2023-02-03T04:32:51;10.70;;;7.28;;
26864;SDS011;40618;51.166;10.322;2023-02-03T04:35:17;8.95;;;6.18;;
26864;SDS011;40618;51.166;10.322;2023-02-03T04:37:44;10.50;;;6.43;;
26864;SDS011;40618;51.166;10.322;2023-02-03T04:40:10;5.97;;;4.60;;
26864;SDS011;40618;51.166;10.322;2023-02-03T04:42:37;9.43;;;7.15;;
26864;SDS011;40618;51.166;10.322;2023-02-03T04:45:05;7.97;;;6.55;;
26864;SDS011;40618;51.166;10.322;2023-02-03T04:47:33;10.02;;;6.07;;
26864;SDS011;40618;51.166;10.322;2023-02-03T04:49:59;7.88;;;5.07;;
26864;SDS011;40618;51.166;10.322;2023-02-03T04:52:25;6.22;;;4.97;;
26864;SDS011;40618;51.166;10.322;2023-02-03T04:54:50;12.57;;;5.63;;
26864;SDS011;40618;51.166;10.322;2023-02-03T04:57:16;5.88;;;4.78;;
26864;SDS011;40618;51.166;10.322;2023-02-03T04:59:42;5.32;;;4.00;;
26864;SDS011;40618;51.166;10.322;2023-02-03T05:02:07;7.18;;;4.88;;
26864;SDS011;40618;51.166;10.322;2023-02-03T05:04:33;6.13;;;4.68;;
26864;SDS011;40618;51.166;10.322;2023-02-03T05:06:59;6.60;;;4.13;;
26864;SDS011;40618;51.166;10.322;2023-02-03T05:09:25;7.22;;;4.80;;
26864;SDS011;40618;51.166;10.322;2023-02-03T05:11:51;5.68;;;4.35;;
26864;SDS011;40618;51.166;10.322;2023-02-03T05:14:17;7.22;;;4.90;;
26864;SDS011;40618;51.166;10.322;2023-02-03T05:16:44;7.63;;;5.68;;
26864;SDS011;40618;51.166;10.322;2023-02-03T05:19:10;7.05;;;5.53;;
26864;SDS011;40618;51.166;10.322;2023-02-03T05:21:35;7.35;;;4.90;;
26864;SDS011;40618;51.166;10.322;2023-02-03T05:24:01;7.20;;;4.38;;
26864;SDS011;40618;51.166;10.322;2023-02-03T05:26:30;11.55;;;4.88;;
26864;SDS011;40618;51.166;10.322;2023-02-03T05:28:56;6.22;;;4.43;;
26864;SDS011;40618;51.166;10.322;2023-02-03T05:31:22;6.20;;;4.43;;
26864;SDS011;40618;51.166;10.322;2023-02-03T05:33:48;8.07;;;4.22;;
26864;SDS011;40618;51.166;10.322;2023-02-03T05:36:13;11.32;;;5.30;;
26864;SDS011;40618;51.166;10.322;2023-02-03T05:38:39;7.05;;;4.45;;
26864;SDS011;40618;51.166;10.322;2023-02-03T05:41:06;7.28;;;4.50;;
26864;SDS011;40618;51.166;10.322;2023-02-03T05:43:53;5.43;;;4.60;;
26864;SDS011;40618;51.166;10.322;2023-02-03T05:46:18;8.00;;;5.07;;
26864;SDS011;40618;51.166;10.322;2023-02-03T05:48:44;7.38;;;4.68;;
26864;SDS011;40618;51.166;10.322;2023-02-03T05:51:10;6.10;;;4.78;;
26864;SDS011;40618;51.166;10.322;2023-02-03T05:53:35;6.13;;;5.00;;
26864;SDS011;40618;51.166;10.322;2023-02-03T05:56:01;9.90;;;5.88;;
26864;SDS011;40618;51.166;10.322;2023-02-03T05:58:27;7.82;;;4.78;;
26864;SDS011;40618;51.166;10.322;2023-02-03T06:00:52;10.02;;;4.95;;
26864;SDS011;40618;51.166;10.322;2023-02-03T06:03:18;7.03;;;4.03;;
26864;SDS011;40618;51.166;10.322;2023-02-03T06:05:43;6.22;;;3.72;;
26864;SDS011;40618;51.166;10.322;2023-02-03T06:08:09;4.55;;;3.67;;
26864;SDS011;40618;51.166;10.322;2023-02-03T06:10:35;6.80;;;3.42;;
26864;SDS011;40618;51.166;10.322;2023-02-03T06:13:11;4.88;;;3.67;;
26864;SDS011;40618;51.166;10.322;2023-02-03T06:15:39;4.38;;;3.00;;
26864;SDS011;40618;51.166;10.322;2023-02-03T06:18:06;4.60;;;3.22;;
26864;SDS011;40618;51.166;10.322;2023-02-03T06:20:32;5.38;;;2.88;;
26864;SDS011;40618;51.166;10.322;2023-02-03T06:22:59;7.63;;;3.13;;
26864;SDS011;40618;51.166;10.322;2023-02-03T06:25:26;3.78;;;2.83;;
26864;SDS011;40618;51.166;10.322;2023-02-03T06:27:51;4.65;;;2.88;;
26864;SDS011;40618;51.166;10.322;2023-02-03T06:30:17;6.57;;;3.10;;
26864;SDS011;40618;51.166;10.322;2023-02-03T06:32:44;3.85;;;2.60;;
26864;SDS011;40618;51.166;10.322;2023-02-03T06:35:11;5.05;;;2.85;;
26864;SDS011;40618;51.166;10.322;2023-02-03T06:37:37;3.33;;;2.30;;
26864;SDS011;40618;51.166;10.322;2023-02-03T06:40:03;4.93;;;2.80;;
26864;SDS011;40618;51.166;10.322;2023-02-03T06:42:30;5.03;;;2.67;;
26864;SDS011;40618;51.166;10.322;2023-02-03T06:44:55;4.15;;;2.58;;
26864;SDS011;40618;51.166;10.322;2023-02-03T06:47:21;8.40;;;3.05;;
26864;SDS011;40618;51.166;10.322;2023-02-03T06:49:46;4.13;;;2.90;;
26864;SDS011;40618;51.166;10.322;2023-02-03T06:52:12;5.75;;;3.13;;
26864;SDS011;40618;51.166;10.322;2023-02-03T06:54:39;7.18;;;3.08;;
26864;SDS011;40618;51.166;10.322;2023-02-03T06:57:05;6.10;;;2.65;;
26864;SDS011;40618;51.166;10.322;2023-02-03T06:59:31;7.07;;;3.33;;
26864;SDS011;40618;51.166;10.322;2023-02-03T07:01:57;4.78;;;2.80;;
26864;SDS011;40618;51.166;10.322;2023-02-03T07:04:22;4.45;;;2.92;;
26864;SDS011;40618;51.166;10.322;2023-02-03T07:06:48;4.57;;;2.90;;
26864;SDS011;40618;51.166;10.322;2023-02-03T07:09:14;4.60;;;2.60;;
26864;SDS011;40618;51.166;10.322;2023-02-03T07:11:40;3.92;;;3.13;;
26864;SDS011;40618;51.166;10.322;2023-02-03T07:14:06;5.13;;;2.30;;
26864;SDS011;40618;51.166;10.322;2023-02-03T07:16:31;6.63;;;2.20;;
26864;SDS011;40618;51.166;10.322;2023-02-03T07:18:58;5.10;;;2.83;;
26864;SDS011;40618;51.166;10.322;2023-02-03T07:21:24;3.97;;;2.20;;
26864;SDS011;40618;51.166;10.322;2023-02-03T07:23:50;4.90;;;2.30;;
26864;SDS011;40618;51.166;10.322;2023-02-03T07:26:16;5.20;;;1.98;;
26864;SDS011;40618;51.166;10.322;2023-02-03T07:28:42;3.90;;;2.13;;
26864;SDS011;40618;51.166;10.322;2023-02-03T07:31:08;3.60;;;2.45;;
26864;SDS011;40618;51.166;10.322;2023-02-03T07:33:34;6.70;;;2.40;;
26864;SDS011;40618;51.166;10.322;2023-02-03T07:36:01;5.75;;;2.17;;
26864;SDS011;40618;51.166;10.322;2023-02-03T07:38:27;4.63;;;2.20;;
26864;SDS011;40618;51.166;10.322;2023-02-03T07:40:53;5.78;;;2.40;;
26864;SDS011;40618;51.166;10.322;2023-02-03T07:43:20;2.90;;;1.98;;
26864;SDS011;40618;51.166;10.322;2023-02-03T07:45:45;3.95;;;1.95;;
26864;SDS011;40618;51.166;10.322;2023-02-03T07:48:11;3.15;;;2.05;;
26864;SDS011;40618;51.166;10.322;2023-02-03T07:50:37;3.65;;;2.00;;
26864;SDS011;40618;51.166;10.322;2023-02-03T07:53:05;3.88;;;2.40;;
26864;SDS011;40618;51.166;10.322;2023-02-03T07:55:30;5.10;;;2.67;;
26864;SDS011;40618;51.166;10.322;2023-02-03T07:57:56;5.05;;;2.72;;
26864;SDS011;40618;51.166;10.322;2023-02-03T08:00:23;5.93;;;2.53;;
26864;SDS011;40618;51.166;10.322;2023-02-03T08:02:49;2.63;;;1.85;;
26864;SDS011;40618;51.166;10.322;2023-02-03T08:05:15;6.18;;;2.45;;
26864;SDS011;40618;51.166;10.322;2023-02-03T08:07:42;4.47;;;2.17;;
26864;SDS011;40618;51.166;10.322;2023-02-03T08:10:09;2.63;;;2.10;;
26864;SDS011;40618;51.166;10.322;2023-02-03T08:12:37;2.33;;;2.13;;
26864;SDS011;40618;51.166;10.322;2023-02-03T08:15:04;5.30;;;2.10;;
26864;SDS011;40618;51.166;10.322;2023-02-03T08:17:31;3.60;;;2.65;;
26864;SDS011;40618;51.166;10.322;2023-02-03T08:19:59;3.72;;;2.15;;
26864;SDS011;40618;51.166;10.322;2023-02-03T08:22:25;4.85;;;2.30;;
26864;SDS011;40618;51.166;10.322;2023-02-03T08:24:51;3.95;;;1.85;;
26864;SDS011;40618;51.166;10.322;2023-02-03T08:27:20;4.97;;;2.60;;
26864;SDS011;40618;51.166;10.322;2023-02-03T08:29:47;3.92;;;2.30;;
26864;SDS011;40618;51.166;10.322;2023-02-03T08:32:17;4.13;;;2.10;;
26864;SDS011;40618;51.166;10.322;2023-02-03T08:34:46;3.60;;;2.40;;
26864;SDS011;40618;51.166;10.322;2023-02-03T08:37:14;5.38;;;1.85;;
26864;SDS011;40618;51.166;10.322;2023-02-03T08:39:42;5.82;;;2.13;;
26864;SDS011;40618;51.166;10.322;2023-02-03T08:42:08;7.15;;;2.30;;
26864;SDS011;40618;51.166;10.322;2023-02-03T08:44:35;3.40;;;2.40;;
26864;SDS011;40618;51.166;10.322;2023-02-03T08:47:02;4.70;;;2.13;;
26864;SDS011;40618;51.166;10.322;2023-02-03T08:49:29;4.90;;;2.53;;
26864;SDS011;40618;51.166;10.322;2023-02-03T08:51:56;3.92;;;2.10;;
26864;SDS011;40618;51.166;10.322;2023-02-03T08:54:23;4.20;;;2.17;;
26864;SDS011;40618;51.166;10.322;2023-02-03T08:56:49;3.00;;;2.40;;
26864;SDS011;40618;51.166;10.322;2023-02-03T08:59:15;4.95;;;2.40;;
26864;SDS011;40618;51.166;10.322;2023-02-03T09:01:42;5.70;;;3.15;;
26864;SDS011;40618;51.166;10.322;2023-02-03T09:04:10;7.70;;;3.20;;
26864;SDS011;40618;51.166;10.322;2023-02-03T09:06:37;4.80;;;2.75;;
26864;SDS011;40618;51.166;10.322;2023-02-03T09:15:59;3.97;;;2.30;;
26864;SDS011;40618;51.166;10.322;2023-02-03T09:18:25;4.28;;;2.45;;
26864;SDS011;40618;51.166;10.322;2023-02-03T09:20:50;4.55;;;2.00;;
26864;SDS011;40618;51.166;10.322;2023-02-03T09:23:16;4.97;;;2.55;;
26864;SDS011;40618;51.166;10.322;2023-02-03T09:25:42;4.75;;;2.22;;
26864;SDS011;40618;51.166;10.322;2023-02-03T09:28:08;2.92;;;1.98;;
26864;SDS011;40618;51.166;10.322;2023-02-03T09:30:33;3.95;;;2.05;;
26864;SDS011;40618;51.166;10.322;2023-02-03T09:32:59;5.10;;;2.45;;
26864;SDS011;40618;51.166;10.322;2023-02-03T09:35:25;4.30;;;2.17;;
26864;SDS011;40618;51.166;10.322;2023-02-03T09:37:51;3.22;;;2.10;;
26864;SDS011;40618;51.166;10.322;2023-02-03T09:40:21;2.40;;;1.85;;
26864;SDS011;40618;51.166;10.322;2023-02-03T09:42:54;3.78;;;2.17;;
26864;SDS011;40618;51.166;10.322;2023-02-03T09:45:30;5.35;;;2.10;;
26864;SDS011;40618;51.166;10.322;2023-02-03T09:48:02;4.90;;;1.88;;
26864;SDS011;40618;51.166;10.322;2023-02-03T09:50:57;3.10;;;1.60;;
26864;SDS011;40618;51.166;10.322;2023-02-03T09:53:27;2.90;;;1.88;;
26864;SDS011;40618;51.166;10.322;2023-02-03T09:56:01;3.13;;;1.83;;
26864;SDS011;40618;51.166;10.322;2023-02-03T09:58:29;4.40;;;1.52;;
26864;SDS011;40618;51.166;10.322;2023-02-03T10:00:58;1.75;;;1.48;;
26864;SDS011;40618;51.166;10.322;2023-02-03T10:04:04;4.60;;;2.05;;
26864;SDS011;40618;51.166;10.322;2023-02-03T10:06:36;2.60;;;1.60;;
26864;SDS011;40618;51.166;10.322;2023-02-03T10:17:42;1.95;;;1.50;;
26864;SDS011;40618;51.166;10.322;2023-02-03T10:20:18;2.20;;;1.30;;
26864;SDS011;40618;51.166;10.322;2023-02-03T10:22:54;1.95;;;1.42;;
26864;SDS011;40618;51.166;10.322;2023-02-03T10:28:13;1.55;;;1.20;;
26864;SDS011;40618;51.166;10.322;2023-02-03T10:30:47;1.50;;;1.40;;
26864;SDS011;40618;51.166;10.322;2023-02-03T10:33:20;2.25;;;1.45;;
26864;SDS011;40618;51.166;10.322;2023-02-03T10:35:50;5.45;;;2.15;;
26864;SDS011;40618;51.166;10.322;2023-02-03T10:38:58;3.25;;;1.15;;
26864;SDS011;40618;51.166;10.322;2023-02-03T10:41:20;1.10;;;1.00;;
26864;SDS011;40618;51.166;10.322;2023-02-03T10:43:51;2.55;;;1.15;;
26864;SDS011;40618;51.166;10.322;2023-02-03T10:46:27;2.10;;;1.20;;
26864;SDS011;40618;51.166;10.322;2023-02-03T10:48:59;1.60;;;1.30;;
26864;SDS011;40618;51.166;10.322;2023-02-03T10:51:27;2.65;;;1.30;;
26864;SDS011;40618;51.166;10.322;2023-02-03T10:54:26;3.53;;;2.20;;
26864;SDS011;40618;51.166;10.322;2023-02-03T10:57:03;2.67;;;1.80;;
26864;SDS011;40618;51.166;10.322;2023-02-03T10:59:38;2.35;;;1.10;;
26864;SDS011;40618;51.166;10.322;2023-02-03T11:02:09;5.35;;;2.90;;
26864;SDS011;40618;51.166;10.322;2023-02-03T11:07:49;4.63;;;2.47;;
26864;SDS011;40618;51.166;10.322;2023-02-03T11:10:35;4.53;;;1.90;;
26864;SDS011;40618;51.166;10.322;2023-02-03T11:18:25;2.78;;;2.45;;
26864;SDS011;40618;51.166;10.322;2023-02-03T11:21:05;6.32;;;1.90;;
26864;SDS011;40618;51.166;10.322;2023-02-03T11:23:47;4.43;;;2.72;;
26864;SDS011;40618;51.166;10.322;2023-02-03T11:26:58;4.32;;;2.78;;
26864;SDS011;40618;51.166;10.322;2023-02-03T11:29:29;2.08;;;1.88;;
26864;SDS011;40618;51.166;10.322;2023-02-03T11:32:03;4.30;;;2.80;;
26864;SDS011;40618;51.166;10.322;2023-02-03T11:34:45;2.05;;;1.60;;
26864;SDS011;40618;51.166;10.322;2023-02-03T11:42:33;3.60;;;2.28;;
26864;SDS011;40618;51.166;10.322;2023-02-03T11:50:35;1.90;;;1.10;;
26864;SDS011;40618;51.166;10.322;2023-02-03T12:05:25;1.58;;;1.48;;
26864;SDS011;40618;51.166;10.322;2023-02-03T12:22:09;4.40;;;1.33;;
26864;SDS011;40618;51.166;10.322;2023-02-03T12:24:56;1.45;;;1.10;;
26864;SDS011;40618;51.166;10.322;2023-02-03T12:30:46;1.23;;;1.10;;
26864;SDS011;40618;51.166;10.322;2023-02-03T12:35:59;2.20;;;1.90;;
26864;SDS011;40618;51.166;10.322;2023-02-03T12:42:04;2.42;;;2.05;;
26864;SDS011;40618;51.166;10.322;2023-02-03T12:44:51;2.20;;;1.90;;
26864;SDS011;40618;51.166;10.322;2023-02-03T12:58:17;4.35;;;2.00;;
26864;SDS011;40618;51.166;10.322;2023-02-03T13:00:50;4.35;;;1.50;;
26864;SDS011;40618;51.166;10.322;2023-02-03T13:04:04;3.80;;;1.30;;
26864;SDS011;40618;51.166;10.322;2023-02-03T13:17:49;3.75;;;1.13;;
26864;SDS011;40618;51.166;10.322;2023-02-03T13:20:21;2.70;;;1.20;;
26864;SDS011;40618;51.166;10.322;2023-02-03T13:22:55;3.85;;;1.45;;
26864;SDS011;40618;51.166;10.322;2023-02-03T13:28:10;1.20;;;0.75;;
26864;SDS011;40618;51.166;10.322;2023-02-03T13:39:35;1.55;;;0.88;;
26864;SDS011;40618;51.166;10.322;2023-02-03T13:44:40;5.70;;;1.30;;
26864;SDS011;40618;51.166;10.322;2023-02-03T13:47:21;4.53;;;1.77;;
26864;SDS011;40618;51.166;10.322;2023-02-03T13:50:34;3.30;;;1.13;;
26864;SDS011;40618;51.166;10.322;2023-02-03T13:53:00;4.32;;;1.17;;
26864;SDS011;40618;51.166;10.322;2023-02-03T13:55:50;7.45;;;3.30;;
26864;SDS011;40618;51.166;10.322;2023-02-03T13:58:29;7.82;;;1.70;;
26864;SDS011;40618;51.166;10.322;2023-02-03T14:00:59;5.05;;;2.08;;
26864;SDS011;40618;51.166;10.322;2023-02-03T14:03:51;5.10;;;1.58;;
26864;SDS011;40618;51.166;10.322;2023-02-03T14:07:19;4.03;;;1.15;;
26864;SDS011;40618;51.166;10.322;2023-02-03T14:17:53;5.25;;;1.88;;
26864;SDS011;40618;51.166;10.322;2023-02-03T14:19:59;8.45;;;2.20;;
26864;SDS011;40618;51.166;10.322;2023-02-03T14:22:27;5.28;;;1.92;;
26864;SDS011;40618;51.166;10.322;2023-02-03T14:24:54;7.00;;;1.95;;
26864;SDS011;40618;51.166;10.322;2023-02-03T14:27:28;12.93;;;3.75;;
26864;SDS011;40618;51.166;10.322;2023-02-03T14:30:28;9.60;;;2.55;;
26864;SDS011;40618;51.166;10.322;2023-02-03T14:35:32;10.25;;;2.60;;
26864;SDS011;40618;51.166;10.322;2023-02-03T14:38:02;8.70;;;2.25;;
26864;SDS011;40618;51.166;10.322;2023-02-03T14:40:39;9.63;;;2.03;;
26864;SDS011;40618;51.166;10.322;2023-02-03T14:46:17;11.40;;;3.00;;
26864;SDS011;40618;51.166;10.322;2023-02-03T15:05:53;10.93;;;2.50;;
26864;SDS011;40618;51.166;10.322;2023-02-03T15:13:55;15.85;;;3.45;;
26864;SDS011;40618;51.166;10.322;2023-02-03T15:16:39;10.55;;;2.53;;
26864;SDS011;40618;51.166;10.322;2023-02-03T15:19:17;9.27;;;1.83;;
26864;SDS011;40618;51.166;10.322;2023-02-03T15:21:48;16.92;;;2.50;;
26864;SDS011;40618;51.166;10.322;2023-02-03T15:24:15;18.13;;;3.17;;
26864;SDS011;40618;51.166;10.322;2023-02-03T15:26:53;10.38;;;2.50;;
26864;SDS011;40618;51.166;10.322;2023-02-03T15:29:22;15.27;;;2.80;;
26864;SDS011;40618;51.166;10.322;2023-02-03T15:31:59;14.38;;;3.25;;
26864;SDS011;40618;51.166;10.322;2023-02-03T15:34:43;16.08;;;3.10;;
26864;SDS011;40618;51.166;10.322;2023-02-03T15:40:00;20.50;;;3.67;;
26864;SDS011;40618;51.166;10.322;2023-02-03T15:47:39;11.80;;;2.90;;
26864;SDS011;40618;51.166;10.322;2023-02-03T15:54:05;10.35;;;2.80;;
26864;SDS011;40618;51.166;10.322;2023-02-03T15:59:05;12.73;;;2.70;;
26864;SDS011;40618;51.166;10.322;2023-02-03T16:01:47;12.52;;;3.13;;
26864;SDS011;40618;51.166;10.322;2023-02-03T16:04:13;18.50;;;3.00;;
26864;SDS011;40618;51.166;10.322;2023-02-03T16:06:43;18.25;;;2.88;;
26864;SDS011;40618;51.166;10.322;2023-02-03T16:12:01;13.38;;;2.40;;
26864;SDS011;40618;51.166;10.322;2023-02-03T16:14:34;14.48;;;3.10;;
26864;SDS011;40618;51.166;10.322;2023-02-03T16:19:27;20.45;;;3.50;;
26864;SDS011;40618;51.166;10.322;2023-02-03T16:21:58;18.20;;;2.72;;
26864;SDS011;40618;51.166;10.322;2023-02-03T16:24:42;17.20;;;3.45;;
26864;SDS011;40618;51.166;10.322;2023-02-03T16:29:54;14.98;;;3.72;;
26864;SDS011;40618;51.166;10.322;2023-02-03T16:35:52;10.77;;;3.22;;
26864;SDS011;40618;51.166;10.322;2023-02-03T16:38:51;11.70;;;2.30;;
26864;SDS011;40618;51.166;10.322;2023-02-03T16:41:35;12.20;;;2.22;;
26864;SDS011;40618;51.166;10.322;2023-02-03T16:44:21;11.45;;;2.88;;
26864;SDS011;40618;51.166;10.322;2023-02-03T16:47:14;15.82;;;2.88;;
26864;SDS011;40618;51.166;10.322;2023-02-03T16:50:15;14.45;;;3.05;;
26864;SDS011;40618;51.166;10.322;2023-02-03T16:53:10;12.88;;;3.00;;
26864;SDS011;40618;51.166;10.322;2023-02-03T16:55:39;19.63;;;3.25;;
26864;SDS011;40618;51.166;10.322;2023-02-03T16:58:08;10.75;;;2.95;;
26864;SDS011;40618;51.166;10.322;2023-02-03T17:00:36;8.77;;;2.72;;
26864;SDS011;40618;51.166;10.322;2023-02-03T17:03:05;13.27;;;2.95;;
26864;SDS011;40618;51.166;10.322;2023-02-03T17:05:37;16.40;;;3.22;;
26864;SDS011;40618;51.166;10.322;2023-02-03T17:08:05;10.55;;;2.58;;
26864;SDS011;40618;51.166;10.322;2023-02-03T17:10:32;12.80;;;2.97;;
26864;SDS011;40618;51.166;10.322;2023-02-03T17:13:03;12.40;;;2.92;;
26864;SDS011;40618;51.166;10.322;2023-02-03T17:15:29;12.00;;;2.85;;
26864;SDS011;40618;51.166;10.322;2023-02-03T17:17:57;11.82;;;2.42;;
26864;SDS011;40618;51.166;10.322;2023-02-03T17:20:23;13.07;;;2.75;;
26864;SDS011;40618;51.166;10.322;2023-02-03T17:22:48;13.00;;;3.40;;
26864;SDS011;40618;51.166;10.322;2023-02-03T17:25:18;14.70;;;3.25;;
26864;SDS011;40618;51.166;10.322;2023-02-03T17:27:44;14.23;;;2.80;;
26864;SDS011;40618;51.166;10.322;2023-02-03T17:30:11;13.57;;;3.20;;
26864;SDS011;40618;51.166;10.322;2023-02-03T17:32:38;10.65;;;2.55;;
26864;SDS011;40618;51.166;10.322;2023-02-03T17:35:04;8.98;;;2.17;;
26864;SDS011;40618;51.166;10.322;2023-02-03T17:37:34;11.40;;;2.72;;
26864;SDS011;40618;51.166;10.322;2023-02-03T17:40:00;10.48;;;3.47;;
26864;SDS011;40618;51.166;10.322;2023-02-03T17:42:28;10.93;;;2.38;;
26864;SDS011;40618;51.166;10.322;2023-02-03T17:44:53;13.70;;;3.03;;
26864;SDS011;40618;51.166;10.322;2023-02-03T17:47:19;11.48;;;2.85;;
26864;SDS011;40618;51.166;10.322;2023-02-03T17:49:45;9.65;;;2.88;;
26864;SDS011;40618;51.166;10.322;2023-02-03T17:52:12;11.75;;;3.60;;
26864;SDS011;40618;51.166;10.322;2023-02-03T17:54:37;13.02;;;2.53;;
26864;SDS011;40618;51.166;10.322;2023-02-03T17:57:03;11.50;;;2.63;;
26864;SDS011;40618;51.166;10.322;2023-02-03T17:59:29;11.05;;;2.72;;
26864;SDS011;40618;51.166;10.322;2023-02-03T18:01:55;15.75;;;2.50;;
26864;SDS011;40618;51.166;10.322;2023-02-03T18:04:21;8.93;;;2.33;;
26864;SDS011;40618;51.166;10.322;2023-02-03T18:06:46;15.95;;;3.05;;
26864;SDS011;40618;51.166;10.322;2023-02-03T18:09:12;11.88;;;2.53;;
26864;SDS011;40618;51.166;10.322;2023-02-03T18:11:40;15.05;;;2.53;;
26864;SDS011;40618;51.166;10.322;2023-02-03T18:14:08;12.90;;;2.95;;
26864;SDS011;40618;51.166;10.322;2023-02-03T18:16:37;13.13;;;3.05;;
26864;SDS011;40618;51.166;10.322;2023-02-03T18:19:04;16.17;;;3.50;;